Time;durP1;ratioP1;P1;durP2;ratioP2;P2;SDS_P1;SDS_P2;PMS_P1;PMS_P2;Temp;Humidity;BMP_temperature;BMP_pressure;BME280_temperature;BME280_humidity;BME280_pressure;Samples;Min_cycle;Max_cycle;Signal;HPM_P1;HPM_P2
2022/11/03 04:05:46;;;;;;;3.50;3.20;;;5.50;99.90;;;;;;5133175;23;20330;-70
2022/11/03 04:08:13;;;;;;;4.00;3.00;;;5.50;99.90;;;;;;5054701;28;20222;-66
2022/11/03 04:10:39;;;;;;;3.35;3.03;;;5.60;99.90;;;;;;5054510;28;20187;-65
2022/11/03 04:24:15;;;;;;;4.68;3.10;;;5.80;99.90;;;;;;5011265;28;20255;-67
2022/11/03 04:26:41;;;;;;;3.70;3.40;;;5.80;99.90;;;;;;5034212;28;20253;-67
2022/11/03 04:29:09;;;;;;;4.97;3.57;;;5.80;99.90;;;;;;5016751;28;20237;-66
2022/11/03 04:31:35;;;;;;;6.05;3.00;;;5.70;99.90;;;;;;5034183;28;20180;-68
2022/11/03 04:34:03;;;;;;;4.23;3.83;;;5.70;99.90;;;;;;5032641;28;20200;-68
2022/11/03 04:36:29;;;;;;;4.20;3.45;;;5.70;99.90;;;;;;5034404;28;20811;-67
2022/11/03 04:38:55;;;;;;;3.60;3.07;;;5.70;99.90;;;;;;5033857;28;20179;-68
2022/11/03 04:41:24;;;;;;;3.25;2.95;;;5.70;99.90;;;;;;5033580;28;20201;-65
2022/11/03 04:43:51;;;;;;;3.30;2.78;;;5.60;99.90;;;;;;5033352;28;20217;-67
2022/11/03 04:46:24;;;;;;;4.72;3.45;;;5.60;99.90;;;;;;5034155;28;20577;-64
2022/11/03 04:48:52;;;;;;;3.58;3.22;;;5.60;99.90;;;;;;5034168;28;20573;-65
2022/11/03 04:51:21;;;;;;;6.30;3.00;;;5.50;99.90;;;;;;5034084;28;20651;-66
2022/11/03 04:53:54;;;;;;;4.43;3.55;;;5.50;99.90;;;;;;5033117;28;20191;-69
2022/11/03 04:56:23;;;;;;;4.20;3.85;;;5.50;99.90;;;;;;5033803;28;20263;-67
2022/11/03 04:58:49;;;;;;;4.05;3.75;;;5.60;99.90;;;;;;5033568;28;20511;-68
2022/11/03 05:01:18;;;;;;;3.25;2.95;;;5.60;99.90;;;;;;5033912;28;20290;-65
2022/11/03 05:03:46;;;;;;;5.38;4.13;;;5.60;99.90;;;;;;5033092;28;20228;-69
2022/11/03 05:06:18;;;;;;;8.75;3.05;;;5.60;99.90;;;;;;5033243;28;20526;-68
2022/11/03 05:08:48;;;;;;;7.10;4.78;;;5.60;99.90;;;;;;5031885;28;20314;-67
2022/11/03 05:11:28;;;;;;;4.68;3.60;;;5.60;99.90;;;;;;5033371;28;20256;-65
2022/11/03 05:14:02;;;;;;;3.58;3.28;;;5.60;99.90;;;;;;5033078;28;20186;-65
2022/11/03 05:16:27;;;;;;;3.58;3.30;;;5.60;99.90;;;;;;5033788;28;20698;-68
2022/11/03 05:18:53;;;;;;;4.33;3.90;;;5.60;99.90;;;;;;5033667;28;20270;-69
2022/11/03 05:21:21;;;;;;;3.63;3.30;;;5.60;99.90;;;;;;5033315;28;20205;-68
2022/11/03 05:23:53;;;;;;;4.05;3.75;;;5.60;99.90;;;;;;5032705;28;20197;-66
2022/11/03 05:26:32;;;;;;;3.95;3.63;;;5.60;99.90;;;;;;5033716;28;20174;-68
2022/11/03 05:29:02;;;;;;;3.08;2.88;;;5.60;99.90;;;;;;5033515;28;20175;-68
2022/11/03 05:31:29;;;;;;;3.55;3.25;;;5.70;99.90;;;;;;5033517;28;20671;-67
2022/11/03 05:34:00;;;;;;;4.10;3.80;;;5.70;99.90;;;;;;5033034;28;20203;-69
2022/11/03 05:36:29;;;;;;;3.45;3.25;;;5.70;99.90;;;;;;5048281;28;20164;-65
2022/11/03 05:39:00;;;;;;;3.28;3.08;;;5.70;99.90;;;;;;5045553;28;20639;-67
2022/11/03 05:41:28;;;;;;;3.90;3.60;;;5.70;99.90;;;;;;5033510;28;20196;-64
2022/11/03 05:44:23;;;;;;;3.92;3.40;;;5.60;99.90;;;;;;5033055;28;20192;-65
2022/11/03 05:46:48;;;;;;;4.47;3.65;;;5.60;99.90;;;;;;5033399;28;20256;-67
2022/11/03 05:49:14;;;;;;;5.60;5.10;;;5.60;99.90;;;;;;5033276;28;20566;-64
2022/11/03 05:51:42;;;;;;;4.83;4.23;;;5.60;99.90;;;;;;5033099;28;20166;-65
2022/11/03 05:54:22;;;;;;;8.02;4.72;;;5.60;99.90;;;;;;5032908;28;20198;-65
2022/11/03 05:56:48;;;;;;;3.95;3.55;;;5.60;99.90;;;;;;5033385;28;20180;-68
2022/11/03 05:59:19;;;;;;;5.20;3.90;;;5.60;99.90;;;;;;5033585;28;20179;-65
2022/11/03 06:01:44;;;;;;;3.80;3.47;;;5.60;99.90;;;;;;5032826;28;20682;-66
2022/11/03 06:04:19;;;;;;;5.20;4.80;;;5.60;99.90;;;;;;5032711;28;20203;-67
2022/11/03 06:06:53;;;;;;;3.58;3.28;;;5.60;99.90;;;;;;5031519;28;20731;-68
2022/11/03 06:09:21;;;;;;;3.95;3.65;;;5.60;99.90;;;;;;5033603;28;20176;-66
2022/11/03 06:11:50;;;;;;;6.18;5.10;;;5.60;99.90;;;;;;5036965;28;20196;-67
2022/11/03 06:14:20;;;;;;;5.63;4.15;;;5.60;99.90;;;;;;5036524;28;20740;-64
2022/11/03 06:16:51;;;;;;;4.32;3.92;;;5.60;99.90;;;;;;5034995;28;20674;-69
2022/11/03 06:19:28;;;;;;;4.65;3.58;;;5.60;99.90;;;;;;5036608;28;20171;-66
2022/11/03 06:21:57;;;;;;;4.20;2.65;;;5.60;99.90;;;;;;5037036;28;20545;-71
2022/11/03 06:24:27;;;;;;;5.28;4.28;;;5.60;99.90;;;;;;5018484;28;20274;-66
2022/11/03 06:26:53;;;;;;;5.45;4.18;;;5.60;99.90;;;;;;5034327;28;20179;-69
2022/11/03 06:29:20;;;;;;;6.10;4.70;;;5.60;99.90;;;;;;5036093;28;20169;-68
2022/11/03 06:31:48;;;;;;;6.90;4.10;;;5.60;99.90;;;;;;5036570;28;20194;-69
2022/11/03 06:34:20;;;;;;;5.03;4.60;;;5.60;99.90;;;;;;5035966;28;20197;-65
2022/11/03 06:36:45;;;;;;;4.18;3.78;;;5.70;99.90;;;;;;5035866;28;20183;-69
2022/11/03 06:39:21;;;;;;;7.97;5.30;;;5.80;99.90;;;;;;5036299;28;20526;-66
2022/11/03 06:41:46;;;;;;;5.10;4.40;;;5.90;99.90;;;;;;5035774;28;20555;-66
2022/11/03 06:44:24;;;;;;;7.43;4.27;;;5.90;99.90;;;;;;5035225;28;20188;-66
2022/11/03 06:46:53;;;;;;;8.48;4.45;;;5.90;99.90;;;;;;5036240;28;20180;-69
2022/11/03 06:49:31;;;;;;;4.78;3.95;;;5.90;99.90;;;;;;5036195;28;20171;-63
2022/11/03 06:52:01;;;;;;;5.32;4.60;;;6.10;99.90;;;;;;5036290;28;20172;-69
2022/11/03 06:54:26;;;;;;;4.90;4.50;;;6.10;99.90;;;;;;5035650;28;20183;-65
2022/11/03 06:56:52;;;;;;;6.97;4.97;;;6.10;99.90;;;;;;5035996;28;20173;-71
2022/11/03 06:59:19;;;;;;;11.07;8.43;;;6.20;99.90;;;;;;5035672;28;20536;-65
2022/11/03 07:01:47;;;;;;;13.07;8.02;;;6.30;99.90;;;;;;5036153;28;20730;-68
2022/11/03 07:04:20;;;;;;;7.22;5.70;;;6.40;99.90;;;;;;5035249;28;20201;-68
2022/11/03 07:06:47;;;;;;;6.97;5.55;;;6.60;99.90;;;;;;5035840;28;20683;-70
2022/11/03 07:09:18;;;;;;;4.57;4.03;;;6.70;99.90;;;;;;5035823;28;20166;-65
2022/11/03 07:11:46;;;;;;;7.70;5.38;;;6.80;99.90;;;;;;5035733;28;20248;-69
2022/11/03 07:14:23;;;;;;;6.70;4.88;;;7.10;99.90;;;;;;5034949;28;20326;-66
2022/11/03 07:17:02;;;;;;;8.65;6.13;;;7.30;99.90;;;;;;5035478;28;20182;-70
2022/11/03 07:19:33;;;;;;;16.83;6.88;;;7.50;99.90;;;;;;5035713;28;20178;-64
2022/11/03 07:22:05;;;;;;;8.75;5.97;;;7.70;99.90;;;;;;5033884;28;20200;-73
2022/11/03 07:24:35;;;;;;;7.43;6.38;;;7.90;99.90;;;;;;5035010;28;20201;-62
2022/11/03 07:27:16;;;;;;;10.95;6.68;;;8.00;99.90;;;;;;5035882;28;20538;-67
2022/11/03 07:29:43;;;;;;;9.35;6.38;;;8.10;99.90;;;;;;5032102;28;20181;-65
2022/11/03 07:32:20;;;;;;;10.75;6.15;;;8.10;99.90;;;;;;5035273;28;20190;-67
2022/11/03 07:34:47;;;;;;;8.50;5.93;;;8.10;99.90;;;;;;5034794;28;20557;-64
2022/11/03 07:37:17;;;;;;;6.18;5.38;;;8.10;99.90;;;;;;5035099;28;20162;-70
2022/11/03 07:39:43;;;;;;;5.78;4.75;;;8.40;99.90;;;;;;5035119;28;20633;-67
2022/11/03 07:42:17;;;;;;;7.93;4.40;;;8.80;99.90;;;;;;5034891;28;20244;-70
2022/11/03 07:44:43;;;;;;;5.80;5.25;;;9.20;99.90;;;;;;5034424;28;20199;-68
2022/11/03 07:47:14;;;;;;;13.03;3.83;;;9.50;99.90;;;;;;5034797;28;20171;-67
2022/11/03 07:49:41;;;;;;;6.97;4.20;;;9.90;99.90;;;;;;5034993;28;20410;-68
2022/11/03 07:52:13;;;;;;;9.13;4.80;;;10.10;99.90;;;;;;5035080;28;20180;-69
2022/11/03 07:54:39;;;;;;;7.23;4.10;;;10.40;99.90;;;;;;5034429;28;20509;-65
2022/11/03 07:57:04;;;;;;;4.40;3.87;;;10.50;99.90;;;;;;5034613;28;20502;-70
2022/11/03 07:59:34;;;;;;;4.90;3.90;;;10.60;99.90;;;;;;5035178;28;20180;-64
2022/11/03 08:02:00;;;;;;;5.30;4.90;;;10.80;99.90;;;;;;5034574;28;20196;-66
2022/11/03 08:04:33;;;;;;;6.33;4.27;;;11.00;99.90;;;;;;5034254;28;20427;-63
2022/11/03 08:06:58;;;;;;;5.47;4.30;;;11.30;99.90;;;;;;5034519;28;20469;-66
2022/11/03 08:09:24;;;;;;;6.33;4.33;;;11.60;99.90;;;;;;5034277;28;20816;-66
2022/11/03 08:11:50;;;;;;;4.33;3.67;;;11.80;99.90;;;;;;5034133;28;20187;-64
2022/11/03 08:14:16;;;;;;;5.90;4.53;;;;;;;;;;5034254;28;20530;-64
2022/11/03 08:16:43;;;;;;;4.60;4.30;;;;;;;;;;5034512;28;20393;-65
2022/11/03 08:19:09;;;;;;;4.57;3.57;;;;;;;;;;5034469;28;20383;-67
2022/11/03 08:21:35;;;;;;;6.77;4.53;;;;;;;;;;5034056;28;20456;-66
2022/11/03 08:24:01;;;;;;;4.33;3.67;;;;;;;;;;5033860;28;20432;-67
2022/11/03 08:26:27;;;;;;;3.97;3.67;;;;;;;;;;5034425;28;20398;-65
2022/11/03 08:28:53;;;;;;;3.90;3.70;;;12.00;99.90;;;;;;5033944;28;20967;-67
2022/11/03 08:31:18;;;;;;;5.33;3.57;;;13.80;99.90;;;;;;5034075;28;20495;-64
2022/11/03 08:33:44;;;;;;;5.37;3.60;;;14.10;99.90;;;;;;5033148;28;20206;-67
2022/11/03 08:36:10;;;;;;;5.87;3.63;;;14.40;99.90;;;;;;5033827;28;20186;-63
2022/11/03 08:38:36;;;;;;;4.10;3.70;;;14.70;99.90;;;;;;5033844;28;20185;-65
2022/11/03 08:41:02;;;;;;;5.50;3.60;;;14.80;99.90;;;;;;5032862;28;20974;-62
2022/11/03 08:43:28;;;;;;;6.03;3.77;;;15.00;99.90;;;;;;5033740;28;20462;-64
2022/11/03 08:45:54;;;;;;;4.77;4.27;;;15.10;99.90;;;;;;5033926;28;20409;-63
2022/11/03 08:48:21;;;;;;;4.90;3.60;;;15.30;99.90;;;;;;5034187;28;20174;-66
2022/11/03 08:50:49;;;;;;;3.80;3.50;;;15.40;99.90;;;;;;5033534;28;20182;-64
2022/11/03 08:53:15;;;;;;;4.77;3.60;;;15.50;99.90;;;;;;5033472;28;20463;-68
2022/11/03 08:55:41;;;;;;;4.03;3.47;;;15.60;99.90;;;;;;5033643;28;20437;-66
2022/11/03 08:58:07;;;;;;;6.10;4.27;;;15.80;99.90;;;;;;5033783;28;20508;-66
2022/11/03 09:00:34;;;;;;;3.50;3.20;;;15.90;99.90;;;;;;5033510;28;20550;-64
2022/11/03 09:03:00;;;;;;;4.77;3.83;;;15.90;99.90;;;;;;5033240;28;20253;-66
2022/11/03 09:05:25;;;;;;;3.50;3.20;;;15.90;99.90;;;;;;5033082;28;20869;-63
2022/11/03 09:07:51;;;;;;;4.83;4.13;;;16.00;99.90;;;;;;5033352;28;20174;-63
2022/11/03 09:10:16;;;;;;;7.70;2.90;;;16.20;99.90;;;;;;5033373;28;20636;-67
2022/11/03 09:12:42;;;;;;;5.03;3.80;;;16.40;99.90;;;;;;5032972;28;20253;-65
2022/11/03 09:15:08;;;;;;;6.40;3.27;;;16.40;99.90;;;;;;5033415;28;20198;-67
2022/11/03 09:17:34;;;;;;;4.23;3.03;;;16.50;99.90;;;;;;5033653;28;20177;-69
2022/11/03 09:19:59;;;;;;;3.37;3.03;;;16.50;99.90;;;;;;5033090;28;20503;-66
2022/11/03 09:22:25;;;;;;;4.13;3.13;;;16.50;99.90;;;;;;5015674;28;20205;-63
2022/11/03 09:24:51;;;;;;;3.63;3.33;;;16.50;99.90;;;;;;5032926;28;20264;-67
2022/11/03 09:27:16;;;;;;;3.63;3.40;;;16.80;99.90;;;;;;5033240;28;20174;-64
2022/11/03 09:29:42;;;;;;;3.80;3.20;;;17.10;99.90;;;;;;5033374;28;20519;-67
2022/11/03 09:32:08;;;;;;;3.37;2.90;;;17.30;99.90;;;;;;5032762;28;20561;-63
2022/11/03 09:34:33;;;;;;;3.70;3.40;;;17.50;99.90;;;;;;5032432;28;20729;-63
2022/11/03 09:36:59;;;;;;;4.07;3.30;;;17.50;99.60;;;;;;5033085;28;20186;-65
2022/11/03 09:39:24;;;;;;;6.63;3.77;;;17.40;99.10;;;;;;5033441;28;20182;-63
2022/11/03 09:41:51;;;;;;;3.00;2.80;;;17.40;99.50;;;;;;5033137;28;20213;-67
2022/11/03 09:44:18;;;;;;;4.43;3.13;;;17.30;99.20;;;;;;5035249;28;20198;-63
2022/11/03 09:46:44;;;;;;;4.13;3.70;;;17.30;99.40;;;;;;5037130;28;20474;-65
2022/11/03 09:49:16;;;;;;;3.53;2.60;;;17.20;98.70;;;;;;5037371;28;20412;-64
2022/11/03 09:51:42;;;;;;;3.97;2.87;;;16.90;98.90;;;;;;5037150;28;20821;-65
2022/11/03 09:54:14;;;;;;;3.47;3.17;;;16.70;99.60;;;;;;5036830;28;20515;-63
2022/11/03 09:56:41;;;;;;;3.97;3.33;;;16.60;99.90;;;;;;5037243;28;20169;-66
2022/11/03 09:59:17;;;;;;;4.97;3.13;;;16.70;99.90;;;;;;5037278;28;20483;-64
2022/11/03 10:01:44;;;;;;;4.00;3.13;;;16.70;99.90;;;;;;5036684;28;20438;-66
2022/11/03 10:04:11;;;;;;;3.40;3.10;;;16.50;99.70;;;;;;5036529;28;20769;-63
2022/11/03 10:06:38;;;;;;;3.47;3.27;;;16.40;99.90;;;;;;5036932;28;20518;-67
2022/11/03 10:09:06;;;;;;;3.37;3.07;;;16.20;99.90;;;;;;5036968;28;20708;-63
2022/11/03 10:11:33;;;;;;;4.00;3.20;;;15.90;99.90;;;;;;5036970;28;20507;-66
2022/11/03 10:13:59;;;;;;;6.23;3.57;;;15.80;99.90;;;;;;5036506;28;20443;-64
2022/11/03 10:16:26;;;;;;;4.70;3.13;;;15.60;99.90;;;;;;5036451;28;20475;-65
2022/11/03 10:18:52;;;;;;;3.67;2.90;;;15.50;99.90;;;;;;5036897;28;20403;-64
2022/11/03 10:21:29;;;;;;;3.20;2.70;;;15.30;99.90;;;;;;5036846;28;20492;-65
2022/11/03 10:23:55;;;;;;;4.67;3.37;;;15.20;99.90;;;;;;5036363;28;20198;-66
2022/11/03 10:26:21;;;;;;;3.03;2.77;;;15.00;99.90;;;;;;5036663;28;20889;-63
2022/11/03 10:29:09;;;;;;;4.60;3.30;;;14.90;99.90;;;;;;5036587;28;20221;-66
2022/11/03 10:31:39;;;;;;;3.50;2.63;;;14.90;99.90;;;;;;5036077;28;20425;-63
2022/11/03 10:34:36;;;;;;;3.30;3.03;;;14.80;99.90;;;;;;5036308;28;20489;-65
2022/11/03 10:37:21;;;;;;;2.80;2.60;;;14.60;99.90;;;;;;5036513;28;20813;-67
2022/11/03 10:39:49;;;;;;;3.40;2.60;;;14.60;99.90;;;;;;5036140;28;20896;-65
2022/11/03 10:42:23;;;;;;;3.30;3.00;;;14.60;99.90;;;;;;5036231;28;20460;-67
2022/11/03 10:44:54;;;;;;;3.90;3.27;;;14.50;99.90;;;;;;5035467;28;20906;-64
2022/11/03 10:47:33;;;;;;;4.23;3.00;;;14.50;99.90;;;;;;5036348;28;20485;-65
2022/11/03 10:50:31;;;;;;;7.00;3.13;;;14.50;99.90;;;;;;5036323;28;20454;-67
2022/11/03 10:52:57;;;;;;;3.43;3.13;;;14.50;99.90;;;;;;4991743;28;20762;-65
2022/11/03 10:55:23;;;;;;;2.80;2.60;;;14.50;99.90;;;;;;5035339;28;20436;-67
2022/11/03 10:57:51;;;;;;;2.23;2.03;;;14.50;99.90;;;;;;5036110;28;20232;-67
2022/11/03 11:00:18;;;;;;;3.17;2.90;;;14.50;99.90;;;;;;5035289;28;20999;-66
2022/11/03 11:02:45;;;;;;;2.87;2.60;;;14.50;99.90;;;;;;5035234;28;20428;-63
2022/11/03 11:05:20;;;;;;;5.90;2.70;;;14.60;99.90;;;;;;5035878;28;20457;-67
2022/11/03 11:07:47;;;;;;;2.23;2.13;;;14.70;99.90;;;;;;5035995;28;20419;-65
2022/11/03 11:10:17;;;;;;;3.40;2.60;;;14.70;99.90;;;;;;5035763;28;20401;-63
2022/11/03 11:13:01;;;;;;;2.80;2.60;;;14.80;99.90;;;;;;5035179;28;20393;-63
2022/11/03 11:15:46;;;;;;;3.90;2.67;;;14.90;99.90;;;;;;5035788;28;20417;-66
2022/11/03 11:18:27;;;;;;;3.17;2.87;;;15.00;99.90;;;;;;5035737;28;20750;-64
2022/11/03 11:20:57;;;;;;;2.60;2.40;;;15.00;99.90;;;;;;5035693;28;20456;-62
2022/11/03 11:23:28;;;;;;;8.70;2.97;;;15.00;99.90;;;;;;5035067;28;20791;-66
2022/11/03 11:26:09;;;;;;;2.77;2.57;;;15.00;99.90;;;;;;5035487;28;20403;-61
2022/11/03 11:28:38;;;;;;;2.30;2.17;;;14.90;99.90;;;;;;5035203;28;20445;-67
2022/11/03 11:31:25;;;;;;;2.40;2.20;;;14.90;99.90;;;;;;5035753;28;20410;-63
2022/11/03 11:34:20;;;;;;;2.90;2.60;;;14.90;99.90;;;;;;5034971;28;20853;-62
2022/11/03 11:37:06;;;;;;;2.77;2.57;;;14.90;99.90;;;;;;5035311;28;20709;-69
2022/11/03 11:39:32;;;;;;;3.47;2.70;;;14.90;99.90;;;;;;5021746;28;20400;-69
2022/11/03 11:42:18;;;;;;;4.80;2.93;;;15.00;99.90;;;;;;5034654;28;20472;-67
2022/11/03 11:44:45;;;;;;;2.67;2.53;;;15.00;99.90;;;;;;5034883;28;20428;-66
2022/11/03 11:47:33;;;;;;;4.17;3.90;;;14.90;99.90;;;;;;5035003;28;20414;-69
2022/11/03 11:50:10;;;;;;;3.77;3.00;;;14.90;99.90;;;;;;5035100;28;20385;-68
2022/11/03 11:53:09;;;;;;;6.27;3.00;;;14.90;99.90;;;;;;5034102;28;20451;-65
2022/11/03 11:55:54;;;;;;;2.57;2.37;;;14.90;99.90;;;;;;5000486;28;20479;-68
2022/11/03 11:58:24;;;;;;;3.23;2.23;;;14.80;99.90;;;;;;5034397;28;20449;-72
2022/11/03 12:00:52;;;;;;;20.73;3.00;;;14.80;99.90;;;;;;5034441;28;20547;-65
2022/11/03 12:03:27;;;;;;;3.00;2.60;;;14.80;99.90;;;;;;5034026;28;20473;-66
2022/11/03 12:05:53;;;;;;;2.70;2.50;;;14.80;99.90;;;;;;5034599;28;20436;-64
2022/11/03 12:08:24;;;;;;;3.60;2.90;;;14.80;99.90;;;;;;5033620;28;20395;-68
2022/11/03 12:10:55;;;;;;;2.47;2.23;;;14.90;99.90;;;;;;5034412;28;20185;-66
2022/11/03 12:13:41;;;;;;;2.57;2.37;;;14.90;99.90;;;;;;5034175;28;20789;-71
2022/11/03 12:16:07;;;;;;;4.47;2.20;;;15.00;99.90;;;;;;5034733;28;20417;-63
2022/11/03 12:18:42;;;;;;;2.97;2.30;;;15.00;99.90;;;;;;5034647;28;20409;-69
2022/11/03 12:21:31;;;;;;;5.50;3.13;;;15.00;99.90;;;;;;5034361;28;20208;-65
2022/11/03 12:23:56;;;;;;;4.70;2.90;;;15.00;99.90;;;;;;5034013;28;20421;-64
2022/11/03 12:26:28;;;;;;;2.53;2.33;;;15.00;99.90;;;;;;5033893;28;20394;-66
2022/11/03 12:28:54;;;;;;;2.90;2.50;;;15.00;99.90;;;;;;5034258;28;20171;-63
2022/11/03 12:31:19;;;;;;;3.53;2.60;;;15.00;99.90;;;;;;5034203;28;21059;-69
2022/11/03 12:33:45;;;;;;;2.17;1.97;;;15.00;99.90;;;;;;5033790;28;20436;-66
2022/11/03 12:36:11;;;;;;;2.70;2.50;;;15.00;99.90;;;;;;5034074;28;20207;-65
2022/11/03 12:38:36;;;;;;;3.03;2.73;;;15.00;99.90;;;;;;5034050;28;20636;-67
2022/11/03 12:41:20;;;;;;;3.70;2.77;;;15.00;99.90;;;;;;5033984;28;20206;-67
2022/11/03 12:43:50;;;;;;;3.33;2.90;;;15.00;99.90;;;;;;5033557;28;20186;-68
2022/11/03 12:46:17;;;;;;;2.40;2.03;;;14.90;99.90;;;;;;5034016;28;20405;-68
2022/11/03 12:48:44;;;;;;;3.50;3.20;;;14.90;99.90;;;;;;5034009;28;20416;-68
2022/11/03 12:51:14;;;;;;;2.70;2.50;;;15.00;99.90;;;;;;5033698;28;20495;-66
2022/11/03 12:53:40;;;;;;;3.43;2.47;;;15.10;99.90;;;;;;5033556;28;20423;-66
2022/11/03 12:56:06;;;;;;;3.03;2.70;;;15.00;99.90;;;;;;5033569;28;20426;-63
2022/11/03 12:58:32;;;;;;;4.17;2.80;;;15.10;99.90;;;;;;5033654;28;20738;-67
2022/11/03 13:00:58;;;;;;;2.83;2.63;;;15.10;99.90;;;;;;5033297;28;20534;-65
2022/11/03 13:03:24;;;;;;;4.07;2.60;;;15.10;99.90;;;;;;5033041;28;20415;-67
2022/11/03 13:05:49;;;;;;;2.40;2.20;;;15.20;99.90;;;;;;5033557;28;20485;-66
2022/11/03 13:08:15;;;;;;;3.40;2.83;;;15.30;99.90;;;;;;5033766;28;20197;-66
2022/11/03 13:10:41;;;;;;;2.80;2.60;;;15.30;99.90;;;;;;5033033;28;20276;-65
2022/11/03 13:13:06;;;;;;;5.30;3.20;;;15.30;99.90;;;;;;5033146;28;20206;-67
2022/11/03 13:15:32;;;;;;;3.40;2.77;;;15.40;99.90;;;;;;5033537;28;20201;-66
2022/11/03 13:17:57;;;;;;;2.20;2.00;;;15.30;99.90;;;;;;5033093;28;20210;-68
2022/11/03 13:20:23;;;;;;;5.50;3.67;;;15.40;99.90;;;;;;5033230;28;20534;-65
2022/11/03 13:22:49;;;;;;;4.67;2.40;;;15.40;99.90;;;;;;5032850;28;20542;-64
2022/11/03 13:25:14;;;;;;;3.00;2.70;;;15.40;99.90;;;;;;5033109;28;20281;-68
2022/11/03 13:27:40;;;;;;;3.00;2.77;;;15.40;99.90;;;;;;5033493;28;20181;-64
2022/11/03 13:30:07;;;;;;;5.13;2.90;;;15.40;99.90;;;;;;5033494;28;20173;-68
2022/11/03 13:32:32;;;;;;;2.87;2.37;;;15.40;99.90;;;;;;5032717;28;20185;-65
2022/11/03 13:34:58;;;;;;;3.97;3.17;;;15.40;99.90;;;;;;5033049;28;20429;-70
2022/11/03 13:37:24;;;;;;;4.70;4.23;;;15.40;99.90;;;;;;5033175;28;20692;-62
2022/11/03 13:39:49;;;;;;;6.93;3.13;;;15.40;99.90;;;;;;5032479;28;20185;-67
2022/11/03 13:42:15;;;;;;;3.60;3.30;;;15.40;99.90;;;;;;5032572;28;20554;-66
2022/11/03 13:44:41;;;;;;;4.13;3.70;;;15.40;99.90;;;;;;5032360;28;20190;-68
2022/11/03 13:47:06;;;;;;;4.80;3.50;;;15.40;99.90;;;;;;5032759;28;20174;-62
2022/11/03 13:49:32;;;;;;;4.07;3.17;;;15.40;99.90;;;;;;5033059;28;20182;-66
2022/11/03 13:51:58;;;;;;;5.10;3.60;;;15.40;99.90;;;;;;5032870;28;20176;-68
2022/11/03 13:54:24;;;;;;;6.53;3.93;;;15.40;99.90;;;;;;5032463;28;21002;-66
2022/11/03 13:56:49;;;;;;;4.50;3.10;;;15.40;99.90;;;;;;5032949;28;20205;-70
2022/11/03 13:59:15;;;;;;;4.60;4.00;;;15.40;99.90;;;;;;5032701;28;20181;-63
2022/11/03 14:01:40;;;;;;;2.90;2.70;;;15.40;99.90;;;;;;5032297;28;20205;-68
2022/11/03 14:04:06;;;;;;;3.90;3.50;;;15.50;99.90;;;;;;5032280;28;20202;-63
2022/11/03 14:06:32;;;;;;;5.10;3.43;;;15.50;99.90;;;;;;5032847;28;20183;-69
2022/11/03 14:08:57;;;;;;;4.20;3.47;;;15.40;99.90;;;;;;5032975;28;20174;-64
2022/11/03 14:14:07;;;;;;;7.20;4.10;;;15.40;99.90;;;;;;5032479;28;20286;-63
2022/11/03 14:16:33;;;;;;;4.47;3.77;;;15.30;99.90;;;;;;5032513;28;20917;-68
2022/11/03 14:18:58;;;;;;;5.27;2.70;;;15.30;99.90;;;;;;5032866;28;20182;-70
2022/11/03 14:21:24;;;;;;;3.13;2.63;;;15.30;99.90;;;;;;5032828;28;20212;-70
2022/11/03 14:23:49;;;;;;;3.03;2.73;;;15.20;99.90;;;;;;5032377;28;20245;-65
2022/11/03 14:26:15;;;;;;;5.90;4.07;;;15.20;99.90;;;;;;5033104;28;20537;-69
2022/11/03 14:28:41;;;;;;;4.00;3.70;;;15.20;99.90;;;;;;5032777;28;20174;-72
2022/11/03 14:31:06;;;;;;;8.60;5.50;;;15.10;99.90;;;;;;5034123;28;20178;-68
2022/11/03 14:33:32;;;;;;;3.87;3.57;;;15.10;99.90;;;;;;5035750;28;20672;-68
2022/11/03 14:35:57;;;;;;;5.00;3.27;;;15.00;99.90;;;;;;5036314;28;20184;-65
2022/11/03 14:38:23;;;;;;;3.37;2.90;;;15.00;99.90;;;;;;5036409;28;20189;-69
2022/11/03 14:43:33;;;;;;;3.93;2.90;;;15.00;99.90;;;;;;5035725;28;20404;-68
2022/11/03 14:45:59;;;;;;;3.63;3.33;;;14.90;99.90;;;;;;5036297;28;20792;-65
2022/11/03 14:48:24;;;;;;;5.00;3.37;;;14.90;99.90;;;;;;5036304;28;20193;-70
2022/11/03 14:50:50;;;;;;;4.03;3.73;;;14.90;99.90;;;;;;5036147;28;20182;-63
2022/11/03 14:53:16;;;;;;;4.50;4.03;;;14.90;99.90;;;;;;5018404;28;20273;-67
2022/11/03 14:55:41;;;;;;;4.00;3.67;;;14.90;99.90;;;;;;5035977;28;20667;-65
2022/11/03 14:58:07;;;;;;;5.37;4.40;;;14.80;99.90;;;;;;5035898;28;20285;-68
2022/11/03 15:00:32;;;;;;;4.50;3.37;;;14.80;99.90;;;;;;5035555;28;20206;-67
2022/11/03 15:02:58;;;;;;;3.60;3.03;;;14.80;99.90;;;;;;5035578;28;20174;-69
2022/11/03 15:08:08;;;;;;;6.27;3.57;;;14.70;99.90;;;;;;5036064;28;20224;-69
2022/11/03 15:10:34;;;;;;;6.60;3.87;;;14.60;99.90;;;;;;5035997;28;20420;-67
2022/11/03 15:12:59;;;;;;;2.70;2.50;;;14.60;99.90;;;;;;5035062;28;20666;-70
2022/11/03 15:15:25;;;;;;;4.50;3.60;;;14.50;99.90;;;;;;5035586;28;20198;-67
2022/11/03 15:17:50;;;;;;;4.50;4.10;;;14.50;99.90;;;;;;5035590;28;20182;-69
2022/11/03 15:20:16;;;;;;;3.03;2.77;;;14.50;99.90;;;;;;5035658;28;20177;-69
2022/11/03 15:22:41;;;;;;;2.57;2.37;;;14.50;99.90;;;;;;5017474;28;20174;-69
2022/11/03 15:25:07;;;;;;;3.20;3.00;;;14.40;99.90;;;;;;5035638;28;20192;-68
2022/11/03 15:27:33;;;;;;;2.30;2.17;;;14.40;99.90;;;;;;5035162;28;20572;-70
2022/11/03 15:29:58;;;;;;;3.17;2.87;;;14.40;99.90;;;;;;5035616;28;20244;-69
2022/11/03 15:32:25;;;;;;;3.90;2.77;;;14.50;99.90;;;;;;5035447;28;20173;-65
2022/11/03 15:34:51;;;;;;;7.93;3.70;;;14.50;99.90;;;;;;5035186;28;20260;-69
2022/11/03 15:37:16;;;;;;;4.47;2.23;;;14.40;99.90;;;;;;5035560;28;20826;-67
2022/11/03 15:39:42;;;;;;;2.60;2.40;;;14.40;99.90;;;;;;5035359;28;20178;-72
2022/11/03 15:42:08;;;;;;;2.73;2.53;;;14.40;99.90;;;;;;5034776;28;20240;-68
2022/11/03 15:44:33;;;;;;;3.60;2.83;;;14.40;99.90;;;;;;5034976;28;20198;-68
2022/11/03 15:46:59;;;;;;;3.57;3.27;;;14.40;99.90;;;;;;5035175;28;20634;-66
2022/11/03 15:49:25;;;;;;;2.73;2.53;;;14.40;99.90;;;;;;5035271;28;20182;-68
2022/11/03 15:51:50;;;;;;;3.67;2.80;;;14.40;99.90;;;;;;5035182;28;20182;-68
2022/11/03 15:54:16;;;;;;;2.70;2.50;;;14.30;99.90;;;;;;5034397;28;20205;-65
2022/11/03 15:56:41;;;;;;;2.77;2.57;;;14.30;99.90;;;;;;5034504;28;20236;-73
2022/11/03 15:59:07;;;;;;;3.27;2.60;;;14.30;99.90;;;;;;5034955;28;20584;-67
2022/11/03 16:01:34;;;;;;;4.00;2.30;;;14.20;99.90;;;;;;5034834;28;20623;-70
2022/11/03 16:04:00;;;;;;;3.83;2.80;;;14.20;99.90;;;;;;5033100;28;20734;-72
2022/11/03 16:06:25;;;;;;;4.23;2.93;;;14.10;99.90;;;;;;5034584;28;20432;-67
2022/11/03 16:08:51;;;;;;;3.17;2.87;;;14.10;99.90;;;;;;5034797;28;20174;-67
2022/11/03 16:11:16;;;;;;;6.23;3.43;;;14.10;99.90;;;;;;5034463;28;20227;-69
2022/11/03 16:13:42;;;;;;;3.67;3.37;;;14.10;99.90;;;;;;5034215;28;20278;-66
2022/11/03 16:16:08;;;;;;;3.23;2.97;;;14.00;99.90;;;;;;5034984;28;20180;-69
2022/11/03 16:18:33;;;;;;;2.60;2.40;;;14.00;99.90;;;;;;5034600;28;20192;-70
2022/11/03 16:20:59;;;;;;;2.60;2.40;;;14.10;99.90;;;;;;5016877;28;20201;-66
2022/11/03 16:23:25;;;;;;;4.40;3.00;;;14.00;99.90;;;;;;5034128;28;20532;-70
2022/11/03 16:25:50;;;;;;;3.57;3.27;;;13.90;99.90;;;;;;5034334;28;20218;-68
2022/11/03 16:28:16;;;;;;;3.70;3.20;;;13.90;99.90;;;;;;5034718;28;20525;-70
2022/11/03 16:30:42;;;;;;;3.67;3.00;;;13.90;99.90;;;;;;5034252;28;20247;-64
2022/11/03 16:33:07;;;;;;;4.00;2.93;;;13.80;99.90;;;;;;5033972;28;20580;-71
2022/11/03 16:35:33;;;;;;;3.37;3.07;;;13.80;99.90;;;;;;5034248;28;20205;-66
2022/11/03 16:37:59;;;;;;;3.70;2.70;;;13.80;99.90;;;;;;5034089;28;20173;-70
2022/11/03 16:40:25;;;;;;;6.43;3.57;;;13.80;99.90;;;;;;5033856;28;20187;-67
2022/11/03 16:42:50;;;;;;;3.37;3.03;;;13.80;99.90;;;;;;5015978;28;20502;-69
2022/11/03 16:45:19;;;;;;;3.63;2.33;;;13.90;99.90;;;;;;5033710;28;20193;-67
2022/11/03 16:47:49;;;;;;;3.80;3.47;;;13.90;99.90;;;;;;5034242;28;20526;-67
2022/11/03 16:50:15;;;;;;;4.53;3.53;;;13.90;99.90;;;;;;5034164;28;20431;-68
2022/11/03 16:52:41;;;;;;;6.37;3.50;;;13.80;99.90;;;;;;5032291;28;20506;-66
2022/11/03 16:55:10;;;;;;;4.03;3.43;;;13.80;99.90;;;;;;5033618;28;20440;-67
2022/11/03 16:57:36;;;;;;;5.40;3.20;;;13.80;99.90;;;;;;5034061;28;20412;-63
2022/11/03 17:00:03;;;;;;;2.77;2.10;;;13.70;99.90;;;;;;5033427;28;20948;-69
2022/11/03 17:02:29;;;;;;;3.03;2.83;;;13.70;99.90;;;;;;5033543;28;20833;-66
2022/11/03 17:04:54;;;;;;;3.17;2.87;;;13.80;99.90;;;;;;5033419;28;20427;-73
2022/11/03 17:07:20;;;;;;;3.60;3.30;;;13.80;99.90;;;;;;5033619;28;20628;-66
2022/11/03 17:09:46;;;;;;;4.57;2.63;;;13.80;99.90;;;;;;5033872;28;20177;-69
2022/11/03 17:12:11;;;;;;;3.67;3.37;;;13.80;99.90;;;;;;5033745;28;20268;-65
2022/11/03 17:14:37;;;;;;;5.40;3.07;;;13.90;99.90;;;;;;5032912;28;20212;-65
2022/11/03 17:17:02;;;;;;;4.50;3.30;;;13.80;99.90;;;;;;5033749;28;20184;-68
2022/11/03 17:19:28;;;;;;;6.13;3.57;;;13.80;99.90;;;;;;5033736;28;20196;-68
2022/11/03 17:21:54;;;;;;;4.20;3.40;;;13.80;99.90;;;;;;5033196;28;20211;-68